sensor_id;sensor_type;location;lat;lon;timestamp;P1;durP1;ratioP1;P2;durP2;ratioP2
17173;SDS011;8702;48.130;-1.696;2023-03-01T00:01:37;22.40;;;20.20;;
17173;SDS011;8702;48.130;-1.696;2023-03-01T00:04:04;22.93;;;20.83;;
17173;SDS011;8702;48.130;-1.696;2023-03-01T00:06:31;23.43;;;21.33;;
17173;SDS011;8702;48.130;-1.696;2023-03-01T00:08:59;23.33;;;20.87;;
17173;SDS011;8702;48.130;-1.696;2023-03-01T00:11:27;22.47;;;20.30;;
17173;SDS011;8702;48.130;-1.696;2023-03-01T00:13:57;22.80;;;20.60;;
17173;SDS011;8702;48.130;-1.696;2023-03-01T00:16:27;21.93;;;20.03;;
17173;SDS011;8702;48.130;-1.696;2023-03-01T00:18:56;23.87;;;21.67;;
17173;SDS011;8702;48.130;-1.696;2023-03-01T00:21:23;22.60;;;20.50;;
17173;SDS011;8702;48.130;-1.696;2023-03-01T00:23:51;23.43;;;21.23;;
17173;SDS011;8702;48.130;-1.696;2023-03-01T00:26:23;22.30;;;20.30;;
17173;SDS011;8702;48.130;-1.696;2023-03-01T00:28:51;22.10;;;20.10;;
17173;SDS011;8702;48.130;-1.696;2023-03-01T00:31:21;23.63;;;21.27;;
17173;SDS011;8702;48.130;-1.696;2023-03-01T00:33:51;22.83;;;20.73;;
17173;SDS011;8702;48.130;-1.696;2023-03-01T00:36:22;22.37;;;20.27;;
17173;SDS011;8702;48.130;-1.696;2023-03-01T00:38:50;23.33;;;21.23;;
17173;SDS011;8702;48.130;-1.696;2023-03-01T00:41:18;22.30;;;20.27;;
17173;SDS011;8702;48.130;-1.696;2023-03-01T00:43:47;22.53;;;20.30;;
17173;SDS011;8702;48.130;-1.696;2023-03-01T00:46:15;23.50;;;21.23;;
17173;SDS011;8702;48.130;-1.696;2023-03-01T00:48:44;25.90;;;23.50;;
17173;SDS011;8702;48.130;-1.696;2023-03-01T00:51:12;23.53;;;21.40;;
17173;SDS011;8702;48.130;-1.696;2023-03-01T00:53:41;23.60;;;21.40;;
17173;SDS011;8702;48.130;-1.696;2023-03-01T00:56:09;24.30;;;21.97;;
17173;SDS011;8702;48.130;-1.696;2023-03-01T00:58:39;23.40;;;21.17;;
17173;SDS011;8702;48.130;-1.696;2023-03-01T01:01:07;23.23;;;21.07;;
17173;SDS011;8702;48.130;-1.696;2023-03-01T01:03:42;23.57;;;21.27;;
17173;SDS011;8702;48.130;-1.696;2023-03-01T01:06:14;23.47;;;21.37;;
17173;SDS011;8702;48.130;-1.696;2023-03-01T01:08:42;23.27;;;21.20;;
17173;SDS011;8702;48.130;-1.696;2023-03-01T01:11:09;24.17;;;21.53;;
17173;SDS011;8702;48.130;-1.696;2023-03-01T01:13:36;23.90;;;21.50;;
17173;SDS011;8702;48.130;-1.696;2023-03-01T01:16:05;23.93;;;21.50;;
17173;SDS011;8702;48.130;-1.696;2023-03-01T01:18:32;23.93;;;21.73;;
17173;SDS011;8702;48.130;-1.696;2023-03-01T01:21:03;23.73;;;21.43;;
17173;SDS011;8702;48.130;-1.696;2023-03-01T01:23:31;24.07;;;21.77;;
17173;SDS011;8702;48.130;-1.696;2023-03-01T01:26:02;24.67;;;22.30;;
17173;SDS011;8702;48.130;-1.696;2023-03-01T01:28:30;26.00;;;23.30;;
17173;SDS011;8702;48.130;-1.696;2023-03-01T01:30:58;25.50;;;23.10;;
17173;SDS011;8702;48.130;-1.696;2023-03-01T01:33:26;25.27;;;22.87;;
17173;SDS011;8702;48.130;-1.696;2023-03-01T01:35:53;24.93;;;22.63;;
17173;SDS011;8702;48.130;-1.696;2023-03-01T01:38:20;26.90;;;24.30;;
17173;SDS011;8702;48.130;-1.696;2023-03-01T01:40:48;25.53;;;23.13;;
17173;SDS011;8702;48.130;-1.696;2023-03-01T01:43:19;24.97;;;22.63;;
17173;SDS011;8702;48.130;-1.696;2023-03-01T01:45:48;24.60;;;22.37;;
17173;SDS011;8702;48.130;-1.696;2023-03-01T01:48:17;24.53;;;22.20;;
17173;SDS011;8702;48.130;-1.696;2023-03-01T01:50:47;24.83;;;22.60;;
17173;SDS011;8702;48.130;-1.696;2023-03-01T01:53:21;24.83;;;22.53;;
17173;SDS011;8702;48.130;-1.696;2023-03-01T01:55:49;24.37;;;22.07;;
17173;SDS011;8702;48.130;-1.696;2023-03-01T01:58:20;24.27;;;21.97;;
17173;SDS011;8702;48.130;-1.696;2023-03-01T02:00:48;25.37;;;22.87;;
17173;SDS011;8702;48.130;-1.696;2023-03-01T02:03:17;24.07;;;21.53;;
17173;SDS011;8702;48.130;-1.696;2023-03-01T02:05:51;24.70;;;22.30;;
17173;SDS011;8702;48.130;-1.696;2023-03-01T02:08:23;23.67;;;21.57;;
17173;SDS011;8702;48.130;-1.696;2023-03-01T02:10:52;22.40;;;20.30;;
17173;SDS011;8702;48.130;-1.696;2023-03-01T02:13:20;24.03;;;21.83;;
17173;SDS011;8702;48.130;-1.696;2023-03-01T02:15:48;22.90;;;20.70;;
17173;SDS011;8702;48.130;-1.696;2023-03-01T02:18:18;23.23;;;20.93;;
17173;SDS011;8702;48.130;-1.696;2023-03-01T02:20:54;23.43;;;21.13;;
17173;SDS011;8702;48.130;-1.696;2023-03-01T02:23:31;22.30;;;20.20;;
17173;SDS011;8702;48.130;-1.696;2023-03-01T02:26:01;22.37;;;20.20;;
17173;SDS011;8702;48.130;-1.696;2023-03-01T02:28:34;23.30;;;21.00;;
17173;SDS011;8702;48.130;-1.696;2023-03-01T02:31:03;22.73;;;20.60;;
17173;SDS011;8702;48.130;-1.696;2023-03-01T02:33:48;21.90;;;19.80;;
17173;SDS011;8702;48.130;-1.696;2023-03-01T02:36:15;22.70;;;20.33;;
17173;SDS011;8702;48.130;-1.696;2023-03-01T02:38:45;22.53;;;19.53;;
17173;SDS011;8702;48.130;-1.696;2023-03-01T02:41:15;21.00;;;18.80;;
17173;SDS011;8702;48.130;-1.696;2023-03-01T02:43:44;21.83;;;19.73;;
17173;SDS011;8702;48.130;-1.696;2023-03-01T02:46:14;22.13;;;19.93;;
17173;SDS011;8702;48.130;-1.696;2023-03-01T02:48:43;19.80;;;17.80;;
17173;SDS011;8702;48.130;-1.696;2023-03-01T02:51:18;19.83;;;17.80;;
17173;SDS011;8702;48.130;-1.696;2023-03-01T02:53:57;20.23;;;18.37;;
17173;SDS011;8702;48.130;-1.696;2023-03-01T02:56:33;21.23;;;19.17;;
17173;SDS011;8702;48.130;-1.696;2023-03-01T02:59:02;20.53;;;18.63;;
17173;SDS011;8702;48.130;-1.696;2023-03-01T03:01:30;21.27;;;19.17;;
17173;SDS011;8702;48.130;-1.696;2023-03-01T03:04:03;21.10;;;19.03;;
17173;SDS011;8702;48.130;-1.696;2023-03-01T03:06:30;20.53;;;18.53;;
17173;SDS011;8702;48.130;-1.696;2023-03-01T03:08:57;19.43;;;17.63;;
17173;SDS011;8702;48.130;-1.696;2023-03-01T03:11:24;19.00;;;17.17;;
17173;SDS011;8702;48.130;-1.696;2023-03-01T03:13:51;19.57;;;17.67;;
17173;SDS011;8702;48.130;-1.696;2023-03-01T03:16:20;19.80;;;17.73;;
17173;SDS011;8702;48.130;-1.696;2023-03-01T03:18:47;19.77;;;17.87;;
17173;SDS011;8702;48.130;-1.696;2023-03-01T03:21:14;19.77;;;17.77;;
17173;SDS011;8702;48.130;-1.696;2023-03-01T03:23:42;18.97;;;17.27;;
17173;SDS011;8702;48.130;-1.696;2023-03-01T03:26:09;19.43;;;17.63;;
17173;SDS011;8702;48.130;-1.696;2023-03-01T03:28:38;18.50;;;16.80;;
17173;SDS011;8702;48.130;-1.696;2023-03-01T03:31:14;18.57;;;16.70;;
17173;SDS011;8702;48.130;-1.696;2023-03-01T03:33:42;19.17;;;17.30;;
17173;SDS011;8702;48.130;-1.696;2023-03-01T03:36:09;19.17;;;17.07;;
17173;SDS011;8702;48.130;-1.696;2023-03-01T03:38:42;19.17;;;17.27;;
17173;SDS011;8702;48.130;-1.696;2023-03-01T03:41:10;17.73;;;16.07;;
17173;SDS011;8702;48.130;-1.696;2023-03-01T03:43:38;18.53;;;16.57;;
17173;SDS011;8702;48.130;-1.696;2023-03-01T03:46:08;18.77;;;16.97;;
17173;SDS011;8702;48.130;-1.696;2023-03-01T03:48:36;18.57;;;16.33;;
17173;SDS011;8702;48.130;-1.696;2023-03-01T03:51:05;17.80;;;16.10;;
17173;SDS011;8702;48.130;-1.696;2023-03-01T03:53:33;18.00;;;16.33;;
17173;SDS011;8702;48.130;-1.696;2023-03-01T03:56:00;17.97;;;16.33;;
17173;SDS011;8702;48.130;-1.696;2023-03-01T03:58:27;18.93;;;17.13;;
17173;SDS011;8702;48.130;-1.696;2023-03-01T04:00:54;17.77;;;16.10;;
17173;SDS011;8702;48.130;-1.696;2023-03-01T04:03:23;18.00;;;16.30;;
17173;SDS011;8702;48.130;-1.696;2023-03-01T04:05:51;16.67;;;15.17;;
17173;SDS011;8702;48.130;-1.696;2023-03-01T04:08:21;17.87;;;16.17;;
17173;SDS011;8702;48.130;-1.696;2023-03-01T04:10:49;16.90;;;15.27;;
17173;SDS011;8702;48.130;-1.696;2023-03-01T04:13:18;17.33;;;15.53;;
17173;SDS011;8702;48.130;-1.696;2023-03-01T04:15:47;16.57;;;14.97;;
17173;SDS011;8702;48.130;-1.696;2023-03-01T04:18:16;17.20;;;15.60;;
17173;SDS011;8702;48.130;-1.696;2023-03-01T04:20:44;16.20;;;14.70;;
17173;SDS011;8702;48.130;-1.696;2023-03-01T04:23:13;16.63;;;15.03;;
17173;SDS011;8702;48.130;-1.696;2023-03-01T04:25:46;16.47;;;14.87;;
17173;SDS011;8702;48.130;-1.696;2023-03-01T04:28:18;16.80;;;15.13;;
17173;SDS011;8702;48.130;-1.696;2023-03-01T04:30:45;17.00;;;15.30;;
17173;SDS011;8702;48.130;-1.696;2023-03-01T04:33:13;17.77;;;16.07;;
17173;SDS011;8702;48.130;-1.696;2023-03-01T04:35:39;18.97;;;15.40;;
17173;SDS011;8702;48.130;-1.696;2023-03-01T04:38:06;17.97;;;16.23;;
17173;SDS011;8702;48.130;-1.696;2023-03-01T04:40:34;17.30;;;15.47;;
17173;SDS011;8702;48.130;-1.696;2023-03-01T04:43:03;18.70;;;16.57;;
17173;SDS011;8702;48.130;-1.696;2023-03-01T04:45:31;17.50;;;15.60;;
17173;SDS011;8702;48.130;-1.696;2023-03-01T04:47:59;17.63;;;15.87;;
17173;SDS011;8702;48.130;-1.696;2023-03-01T04:50:26;19.10;;;15.67;;
17173;SDS011;8702;48.130;-1.696;2023-03-01T04:52:53;19.13;;;17.13;;
17173;SDS011;8702;48.130;-1.696;2023-03-01T04:55:23;18.70;;;17.00;;
17173;SDS011;8702;48.130;-1.696;2023-03-01T04:57:51;17.17;;;15.47;;
17173;SDS011;8702;48.130;-1.696;2023-03-01T05:00:20;17.77;;;16.07;;
17173;SDS011;8702;48.130;-1.696;2023-03-01T05:02:49;18.13;;;16.20;;
17173;SDS011;8702;48.130;-1.696;2023-03-01T05:05:22;17.23;;;15.57;;
17173;SDS011;8702;48.130;-1.696;2023-03-01T05:07:55;18.23;;;16.20;;
17173;SDS011;8702;48.130;-1.696;2023-03-01T05:10:25;17.30;;;15.50;;
17173;SDS011;8702;48.130;-1.696;2023-03-01T05:12:54;17.33;;;15.53;;
17173;SDS011;8702;48.130;-1.696;2023-03-01T05:15:24;17.03;;;15.53;;
17173;SDS011;8702;48.130;-1.696;2023-03-01T05:17:51;17.43;;;15.60;;
17173;SDS011;8702;48.130;-1.696;2023-03-01T05:20:19;17.80;;;15.90;;
17173;SDS011;8702;48.130;-1.696;2023-03-01T05:22:48;17.57;;;15.73;;
17173;SDS011;8702;48.130;-1.696;2023-03-01T05:25:15;18.20;;;16.40;;
17173;SDS011;8702;48.130;-1.696;2023-03-01T05:27:43;17.23;;;15.63;;
17173;SDS011;8702;48.130;-1.696;2023-03-01T05:30:10;17.70;;;16.00;;
17173;SDS011;8702;48.130;-1.696;2023-03-01T05:32:44;17.27;;;15.47;;
17173;SDS011;8702;48.130;-1.696;2023-03-01T05:35:14;17.87;;;16.07;;
17173;SDS011;8702;48.130;-1.696;2023-03-01T05:37:42;16.67;;;14.83;;
17173;SDS011;8702;48.130;-1.696;2023-03-01T05:40:10;17.20;;;15.60;;
17173;SDS011;8702;48.130;-1.696;2023-03-01T05:42:41;16.47;;;14.77;;
17173;SDS011;8702;48.130;-1.696;2023-03-01T05:45:12;16.07;;;14.30;;
17173;SDS011;8702;48.130;-1.696;2023-03-01T05:47:39;16.47;;;14.97;;
17173;SDS011;8702;48.130;-1.696;2023-03-01T05:50:11;16.17;;;14.47;;
17173;SDS011;8702;48.130;-1.696;2023-03-01T05:52:43;17.50;;;15.27;;
17173;SDS011;8702;48.130;-1.696;2023-03-01T05:55:11;16.63;;;14.93;;
17173;SDS011;8702;48.130;-1.696;2023-03-01T05:57:38;16.47;;;14.97;;
17173;SDS011;8702;48.130;-1.696;2023-03-01T06:00:05;16.23;;;14.47;;
17173;SDS011;8702;48.130;-1.696;2023-03-01T06:02:33;15.60;;;14.10;;
17173;SDS011;8702;48.130;-1.696;2023-03-01T06:05:00;17.37;;;14.90;;
17173;SDS011;8702;48.130;-1.696;2023-03-01T06:07:28;16.07;;;14.37;;
17173;SDS011;8702;48.130;-1.696;2023-03-01T06:09:55;16.57;;;14.97;;
17173;SDS011;8702;48.130;-1.696;2023-03-01T06:12:22;19.53;;;15.17;;
17173;SDS011;8702;48.130;-1.696;2023-03-01T06:14:49;16.83;;;14.57;;
17173;SDS011;8702;48.130;-1.696;2023-03-01T06:17:16;16.60;;;14.90;;
17173;SDS011;8702;48.130;-1.696;2023-03-01T06:19:43;15.30;;;13.63;;
17173;SDS011;8702;48.130;-1.696;2023-03-01T06:22:10;15.40;;;13.90;;
17173;SDS011;8702;48.130;-1.696;2023-03-01T06:24:38;15.30;;;13.90;;
17173;SDS011;8702;48.130;-1.696;2023-03-01T06:27:05;15.37;;;13.87;;
17173;SDS011;8702;48.130;-1.696;2023-03-01T06:29:32;16.00;;;13.67;;
17173;SDS011;8702;48.130;-1.696;2023-03-01T06:31:59;15.77;;;13.97;;
17173;SDS011;8702;48.130;-1.696;2023-03-01T06:34:28;15.37;;;13.43;;
17173;SDS011;8702;48.130;-1.696;2023-03-01T06:36:55;15.10;;;13.60;;
17173;SDS011;8702;48.130;-1.696;2023-03-01T06:39:22;15.23;;;13.83;;
17173;SDS011;8702;48.130;-1.696;2023-03-01T06:41:50;15.47;;;13.87;;
17173;SDS011;8702;48.130;-1.696;2023-03-01T06:44:17;16.30;;;14.70;;
17173;SDS011;8702;48.130;-1.696;2023-03-01T06:46:44;15.47;;;13.83;;
17173;SDS011;8702;48.130;-1.696;2023-03-01T06:49:11;16.10;;;14.00;;
17173;SDS011;8702;48.130;-1.696;2023-03-01T06:51:38;14.47;;;12.83;;
17173;SDS011;8702;48.130;-1.696;2023-03-01T06:54:05;15.57;;;13.93;;
17173;SDS011;8702;48.130;-1.696;2023-03-01T06:56:32;15.20;;;13.60;;
17173;SDS011;8702;48.130;-1.696;2023-03-01T06:59:01;17.27;;;13.53;;
17173;SDS011;8702;48.130;-1.696;2023-03-01T07:01:28;15.17;;;13.67;;
17173;SDS011;8702;48.130;-1.696;2023-03-01T07:03:55;15.37;;;13.87;;
17173;SDS011;8702;48.130;-1.696;2023-03-01T07:06:23;15.50;;;13.90;;
17173;SDS011;8702;48.130;-1.696;2023-03-01T07:08:50;15.27;;;13.67;;
17173;SDS011;8702;48.130;-1.696;2023-03-01T07:11:17;14.87;;;13.37;;
17173;SDS011;8702;48.130;-1.696;2023-03-01T07:13:44;15.40;;;13.80;;
17173;SDS011;8702;48.130;-1.696;2023-03-01T07:16:12;17.37;;;14.47;;
17173;SDS011;8702;48.130;-1.696;2023-03-01T07:18:39;14.97;;;13.47;;
17173;SDS011;8702;48.130;-1.696;2023-03-01T07:21:06;14.00;;;12.67;;
17173;SDS011;8702;48.130;-1.696;2023-03-01T07:23:34;18.70;;;14.97;;
17173;SDS011;8702;48.130;-1.696;2023-03-01T07:26:01;15.40;;;13.30;;
17173;SDS011;8702;48.130;-1.696;2023-03-01T07:28:28;16.70;;;14.13;;
17173;SDS011;8702;48.130;-1.696;2023-03-01T07:31:00;14.30;;;12.80;;
17173;SDS011;8702;48.130;-1.696;2023-03-01T07:33:29;14.80;;;13.37;;
17173;SDS011;8702;48.130;-1.696;2023-03-01T07:35:56;15.27;;;13.10;;
17173;SDS011;8702;48.130;-1.696;2023-03-01T07:38:24;14.70;;;13.17;;
17173;SDS011;8702;48.130;-1.696;2023-03-01T07:40:51;15.43;;;13.70;;
17173;SDS011;8702;48.130;-1.696;2023-03-01T07:43:18;16.40;;;13.03;;
17173;SDS011;8702;48.130;-1.696;2023-03-01T07:45:45;14.50;;;13.07;;
17173;SDS011;8702;48.130;-1.696;2023-03-01T07:48:12;14.57;;;13.03;;
17173;SDS011;8702;48.130;-1.696;2023-03-01T07:50:40;14.63;;;13.07;;
17173;SDS011;8702;48.130;-1.696;2023-03-01T07:53:08;14.10;;;12.63;;
17173;SDS011;8702;48.130;-1.696;2023-03-01T07:55:35;14.73;;;13.23;;
17173;SDS011;8702;48.130;-1.696;2023-03-01T07:58:02;17.30;;;14.57;;
17173;SDS011;8702;48.130;-1.696;2023-03-01T08:00:29;15.50;;;13.97;;
17173;SDS011;8702;48.130;-1.696;2023-03-01T08:02:58;14.37;;;12.97;;
17173;SDS011;8702;48.130;-1.696;2023-03-01T08:05:25;15.43;;;13.80;;
17173;SDS011;8702;48.130;-1.696;2023-03-01T08:07:54;14.50;;;13.13;;
17173;SDS011;8702;48.130;-1.696;2023-03-01T08:10:21;13.70;;;12.37;;
17173;SDS011;8702;48.130;-1.696;2023-03-01T08:12:48;14.57;;;12.97;;
17173;SDS011;8702;48.130;-1.696;2023-03-01T08:15:17;14.97;;;13.20;;
17173;SDS011;8702;48.130;-1.696;2023-03-01T08:17:44;14.30;;;12.83;;
17173;SDS011;8702;48.130;-1.696;2023-03-01T08:20:13;15.03;;;13.60;;
17173;SDS011;8702;48.130;-1.696;2023-03-01T08:22:40;14.27;;;12.87;;
17173;SDS011;8702;48.130;-1.696;2023-03-01T08:25:08;13.67;;;12.27;;
17173;SDS011;8702;48.130;-1.696;2023-03-01T08:27:35;14.20;;;12.70;;
17173;SDS011;8702;48.130;-1.696;2023-03-01T08:30:02;17.33;;;12.37;;
17173;SDS011;8702;48.130;-1.696;2023-03-01T08:32:32;14.60;;;13.20;;
17173;SDS011;8702;48.130;-1.696;2023-03-01T08:35:02;14.17;;;12.77;;
17173;SDS011;8702;48.130;-1.696;2023-03-01T08:37:30;13.83;;;12.53;;
17173;SDS011;8702;48.130;-1.696;2023-03-01T08:39:58;12.57;;;11.37;;
17173;SDS011;8702;48.130;-1.696;2023-03-01T08:42:26;13.70;;;12.30;;
17173;SDS011;8702;48.130;-1.696;2023-03-01T08:44:54;14.10;;;12.70;;
17173;SDS011;8702;48.130;-1.696;2023-03-01T08:47:21;14.17;;;12.77;;
17173;SDS011;8702;48.130;-1.696;2023-03-01T08:49:49;14.40;;;13.07;;
17173;SDS011;8702;48.130;-1.696;2023-03-01T08:52:16;12.50;;;11.30;;
17173;SDS011;8702;48.130;-1.696;2023-03-01T08:54:43;13.83;;;12.27;;
17173;SDS011;8702;48.130;-1.696;2023-03-01T08:57:10;13.30;;;12.00;;
17173;SDS011;8702;48.130;-1.696;2023-03-01T08:59:39;12.93;;;11.73;;
17173;SDS011;8702;48.130;-1.696;2023-03-01T09:02:10;13.67;;;12.27;;
17173;SDS011;8702;48.130;-1.696;2023-03-01T09:04:39;13.40;;;12.10;;
17173;SDS011;8702;48.130;-1.696;2023-03-01T09:07:06;13.20;;;12.00;;
17173;SDS011;8702;48.130;-1.696;2023-03-01T09:09:34;13.53;;;12.13;;
17173;SDS011;8702;48.130;-1.696;2023-03-01T09:12:01;13.23;;;11.87;;
17173;SDS011;8702;48.130;-1.696;2023-03-01T09:14:28;12.73;;;11.43;;
17173;SDS011;8702;48.130;-1.696;2023-03-01T09:16:56;15.10;;;12.73;;
17173;SDS011;8702;48.130;-1.696;2023-03-01T09:19:28;15.70;;;12.57;;
17173;SDS011;8702;48.130;-1.696;2023-03-01T09:21:54;13.50;;;12.00;;
17173;SDS011;8702;48.130;-1.696;2023-03-01T09:24:23;14.03;;;12.53;;
17173;SDS011;8702;48.130;-1.696;2023-03-01T09:26:53;13.53;;;12.10;;
17173;SDS011;8702;48.130;-1.696;2023-03-01T09:29:21;13.87;;;11.83;;
17173;SDS011;8702;48.130;-1.696;2023-03-01T09:31:48;14.77;;;11.97;;
17173;SDS011;8702;48.130;-1.696;2023-03-01T09:34:17;15.20;;;12.03;;
17173;SDS011;8702;48.130;-1.696;2023-03-01T09:36:48;13.67;;;12.33;;
17173;SDS011;8702;48.130;-1.696;2023-03-01T09:39:15;13.50;;;12.13;;
17173;SDS011;8702;48.130;-1.696;2023-03-01T09:41:44;16.83;;;12.40;;
17173;SDS011;8702;48.130;-1.696;2023-03-01T09:44:21;14.37;;;11.87;;
17173;SDS011;8702;48.130;-1.696;2023-03-01T09:46:55;13.93;;;11.43;;
17173;SDS011;8702;48.130;-1.696;2023-03-01T09:49:25;14.83;;;12.37;;
17173;SDS011;8702;48.130;-1.696;2023-03-01T09:51:56;13.23;;;11.80;;
17173;SDS011;8702;48.130;-1.696;2023-03-01T09:54:25;15.23;;;11.73;;
17173;SDS011;8702;48.130;-1.696;2023-03-01T09:56:59;15.20;;;12.43;;
17173;SDS011;8702;48.130;-1.696;2023-03-01T09:59:39;13.97;;;12.50;;
17173;SDS011;8702;48.130;-1.696;2023-03-01T10:02:24;14.93;;;12.23;;
17173;SDS011;8702;48.130;-1.696;2023-03-01T10:04:59;16.77;;;12.40;;
17173;SDS011;8702;48.130;-1.696;2023-03-01T10:07:40;13.17;;;11.87;;
17173;SDS011;8702;48.130;-1.696;2023-03-01T10:10:16;14.13;;;12.73;;
17173;SDS011;8702;48.130;-1.696;2023-03-01T10:12:51;14.00;;;12.43;;
17173;SDS011;8702;48.130;-1.696;2023-03-01T10:15:22;14.80;;;12.10;;
17173;SDS011;8702;48.130;-1.696;2023-03-01T10:18:00;15.27;;;12.83;;
17173;SDS011;8702;48.130;-1.696;2023-03-01T10:20:36;14.77;;;13.27;;
17173;SDS011;8702;48.130;-1.696;2023-03-01T10:23:11;14.23;;;12.83;;
17173;SDS011;8702;48.130;-1.696;2023-03-01T10:25:51;13.50;;;12.20;;
17173;SDS011;8702;48.130;-1.696;2023-03-01T10:28:31;14.53;;;13.10;;
17173;SDS011;8702;48.130;-1.696;2023-03-01T10:31:11;13.87;;;12.43;;
17173;SDS011;8702;48.130;-1.696;2023-03-01T10:33:40;15.50;;;12.73;;
17173;SDS011;8702;48.130;-1.696;2023-03-01T10:36:09;18.40;;;13.83;;
17173;SDS011;8702;48.130;-1.696;2023-03-01T10:38:49;14.47;;;13.07;;
17173;SDS011;8702;48.130;-1.696;2023-03-01T10:41:19;14.87;;;13.33;;
17173;SDS011;8702;48.130;-1.696;2023-03-01T10:43:49;15.40;;;13.87;;
17173;SDS011;8702;48.130;-1.696;2023-03-01T10:46:25;15.90;;;13.40;;
17173;SDS011;8702;48.130;-1.696;2023-03-01T10:49:07;16.17;;;14.13;;
17173;SDS011;8702;48.130;-1.696;2023-03-01T10:51:39;16.03;;;14.37;;
17173;SDS011;8702;48.130;-1.696;2023-03-01T10:54:14;15.23;;;13.73;;
17173;SDS011;8702;48.130;-1.696;2023-03-01T10:56:47;14.90;;;13.40;;
17173;SDS011;8702;48.130;-1.696;2023-03-01T10:59:25;16.43;;;14.57;;
17173;SDS011;8702;48.130;-1.696;2023-03-01T11:02:01;15.07;;;13.67;;
17173;SDS011;8702;48.130;-1.696;2023-03-01T11:04:56;16.33;;;14.63;;
17173;SDS011;8702;48.130;-1.696;2023-03-01T11:07:28;18.63;;;14.87;;
17173;SDS011;8702;48.130;-1.696;2023-03-01T11:09:55;16.47;;;14.83;;
17173;SDS011;8702;48.130;-1.696;2023-03-01T11:12:22;17.13;;;15.30;;
17173;SDS011;8702;48.130;-1.696;2023-03-01T11:14:51;17.23;;;15.50;;
17173;SDS011;8702;48.130;-1.696;2023-03-01T11:17:21;17.77;;;15.37;;
17173;SDS011;8702;48.130;-1.696;2023-03-01T11:20:01;18.00;;;16.20;;
17173;SDS011;8702;48.130;-1.696;2023-03-01T11:22:32;20.87;;;16.30;;
17173;SDS011;8702;48.130;-1.696;2023-03-01T11:25:01;19.03;;;17.10;;
17173;SDS011;8702;48.130;-1.696;2023-03-01T11:27:31;17.30;;;15.60;;
17173;SDS011;8702;48.130;-1.696;2023-03-01T11:29:59;18.53;;;16.27;;
17173;SDS011;8702;48.130;-1.696;2023-03-01T11:32:32;17.83;;;16.07;;
17173;SDS011;8702;48.130;-1.696;2023-03-01T11:35:05;19.40;;;16.30;;
17173;SDS011;8702;48.130;-1.696;2023-03-01T11:37:44;18.40;;;16.50;;
17173;SDS011;8702;48.130;-1.696;2023-03-01T11:40:22;19.00;;;17.07;;
17173;SDS011;8702;48.130;-1.696;2023-03-01T11:42:55;19.63;;;16.57;;
17173;SDS011;8702;48.130;-1.696;2023-03-01T11:45:30;17.70;;;15.80;;
17173;SDS011;8702;48.130;-1.696;2023-03-01T11:48:07;18.73;;;16.93;;
17173;SDS011;8702;48.130;-1.696;2023-03-01T11:50:48;18.23;;;16.33;;
17173;SDS011;8702;48.130;-1.696;2023-03-01T11:56:10;18.23;;;15.07;;
17173;SDS011;8702;48.130;-1.696;2023-03-01T11:58:55;15.63;;;14.03;;
17173;SDS011;8702;48.130;-1.696;2023-03-01T12:01:37;15.83;;;14.23;;
17173;SDS011;8702;48.130;-1.696;2023-03-01T12:04:23;17.77;;;16.07;;
17173;SDS011;8702;48.130;-1.696;2023-03-01T12:07:05;15.97;;;14.40;;
17173;SDS011;8702;48.130;-1.696;2023-03-01T12:09:47;15.80;;;14.30;;
17173;SDS011;8702;48.130;-1.696;2023-03-01T12:12:26;17.63;;;13.80;;
17173;SDS011;8702;48.130;-1.696;2023-03-01T12:18:15;16.30;;;14.60;;
17173;SDS011;8702;48.130;-1.696;2023-03-01T12:20:54;15.10;;;13.70;;
17173;SDS011;8702;48.130;-1.696;2023-03-01T12:23:37;15.03;;;13.63;;
17173;SDS011;8702;48.130;-1.696;2023-03-01T12:26:25;14.47;;;13.13;;
17173;SDS011;8702;48.130;-1.696;2023-03-01T12:29:02;14.83;;;13.43;;
17173;SDS011;8702;48.130;-1.696;2023-03-01T12:31:47;15.87;;;13.93;;
17173;SDS011;8702;48.130;-1.696;2023-03-01T12:37:36;13.20;;;12.00;;
17173;SDS011;8702;48.130;-1.696;2023-03-01T12:42:51;12.27;;;11.03;;
17173;SDS011;8702;48.130;-1.696;2023-03-01T12:45:38;12.20;;;11.00;;
17173;SDS011;8702;48.130;-1.696;2023-03-01T12:48:14;11.97;;;10.77;;
17173;SDS011;8702;48.130;-1.696;2023-03-01T12:50:43;12.47;;;11.37;;
17173;SDS011;8702;48.130;-1.696;2023-03-01T12:53:21;12.10;;;10.87;;
17173;SDS011;8702;48.130;-1.696;2023-03-01T12:55:49;12.20;;;9.73;;
17173;SDS011;8702;48.130;-1.696;2023-03-01T12:58:20;10.67;;;9.50;;
17173;SDS011;8702;48.130;-1.696;2023-03-01T13:00:53;10.40;;;9.40;;
17173;SDS011;8702;48.130;-1.696;2023-03-01T13:03:28;8.57;;;7.77;;
17173;SDS011;8702;48.130;-1.696;2023-03-01T13:06:01;8.53;;;7.73;;
17173;SDS011;8702;48.130;-1.696;2023-03-01T13:08:33;7.80;;;7.07;;
17173;SDS011;8702;48.130;-1.696;2023-03-01T13:11:14;9.57;;;7.93;;
17173;SDS011;8702;48.130;-1.696;2023-03-01T13:13:44;8.80;;;7.90;;
17173;SDS011;8702;48.130;-1.696;2023-03-01T13:16:21;7.90;;;7.10;;
17173;SDS011;8702;48.130;-1.696;2023-03-01T13:18:49;9.50;;;7.60;;
17173;SDS011;8702;48.130;-1.696;2023-03-01T13:21:28;8.13;;;7.03;;
17173;SDS011;8702;48.130;-1.696;2023-03-01T13:23:56;7.53;;;6.73;;
17173;SDS011;8702;48.130;-1.696;2023-03-01T13:26:23;7.57;;;6.57;;
17173;SDS011;8702;48.130;-1.696;2023-03-01T13:28:55;6.73;;;6.13;;
17173;SDS011;8702;48.130;-1.696;2023-03-01T13:34:18;8.90;;;6.10;;
17173;SDS011;8702;48.130;-1.696;2023-03-01T13:37:09;6.80;;;6.10;;
17173;SDS011;8702;48.130;-1.696;2023-03-01T13:39:39;6.60;;;5.90;;
17173;SDS011;8702;48.130;-1.696;2023-03-01T13:44:49;9.37;;;6.33;;
17173;SDS011;8702;48.130;-1.696;2023-03-01T13:47:17;6.77;;;6.07;;
17173;SDS011;8702;48.130;-1.696;2023-03-01T13:49:46;6.40;;;5.80;;
17173;SDS011;8702;48.130;-1.696;2023-03-01T13:55:03;7.00;;;6.30;;
17173;SDS011;8702;48.130;-1.696;2023-03-01T13:57:32;8.67;;;7.27;;
17173;SDS011;8702;48.130;-1.696;2023-03-01T14:00:03;11.33;;;8.07;;
17173;SDS011;8702;48.130;-1.696;2023-03-01T14:02:30;11.30;;;6.60;;
17173;SDS011;8702;48.130;-1.696;2023-03-01T14:04:59;7.33;;;6.07;;
17173;SDS011;8702;48.130;-1.696;2023-03-01T14:07:27;7.57;;;6.23;;
17173;SDS011;8702;48.130;-1.696;2023-03-01T14:09:56;8.67;;;5.50;;
17173;SDS011;8702;48.130;-1.696;2023-03-01T14:12:30;5.87;;;5.33;;
17173;SDS011;8702;48.130;-1.696;2023-03-01T14:15:02;5.27;;;4.80;;
17173;SDS011;8702;48.130;-1.696;2023-03-01T14:17:44;5.60;;;5.10;;
17173;SDS011;8702;48.130;-1.696;2023-03-01T14:20:16;5.93;;;5.30;;
17173;SDS011;8702;48.130;-1.696;2023-03-01T14:22:45;8.70;;;6.40;;
17173;SDS011;8702;48.130;-1.696;2023-03-01T14:25:26;6.20;;;5.27;;
17173;SDS011;8702;48.130;-1.696;2023-03-01T14:27:56;7.90;;;5.50;;
17173;SDS011;8702;48.130;-1.696;2023-03-01T14:30:25;5.90;;;5.30;;
17173;SDS011;8702;48.130;-1.696;2023-03-01T14:32:53;8.10;;;5.60;;
17173;SDS011;8702;48.130;-1.696;2023-03-01T14:35:22;8.00;;;5.87;;
17173;SDS011;8702;48.130;-1.696;2023-03-01T14:37:49;7.87;;;6.07;;
17173;SDS011;8702;48.130;-1.696;2023-03-01T14:40:21;8.70;;;6.40;;
17173;SDS011;8702;48.130;-1.696;2023-03-01T14:42:49;7.27;;;6.57;;
17173;SDS011;8702;48.130;-1.696;2023-03-01T14:45:16;7.40;;;6.70;;
17173;SDS011;8702;48.130;-1.696;2023-03-01T14:47:46;7.23;;;6.33;;
17173;SDS011;8702;48.130;-1.696;2023-03-01T14:50:19;8.07;;;7.27;;
17173;SDS011;8702;48.130;-1.696;2023-03-01T14:52:48;8.70;;;7.27;;
17173;SDS011;8702;48.130;-1.696;2023-03-01T14:55:17;7.60;;;6.80;;
17173;SDS011;8702;48.130;-1.696;2023-03-01T14:57:47;9.03;;;8.00;;
17173;SDS011;8702;48.130;-1.696;2023-03-01T15:00:16;10.27;;;6.93;;
17173;SDS011;8702;48.130;-1.696;2023-03-01T15:02:46;8.40;;;7.53;;
17173;SDS011;8702;48.130;-1.696;2023-03-01T15:05:14;8.93;;;7.37;;